Time;durP1;ratioP1;P1;durP2;ratioP2;P2;SDS_P1;SDS_P2;PMS_P1;PMS_P2;Temp;Humidity;BMP_temperature;BMP_pressure;BME280_temperature;BME280_humidity;BME280_pressure;Samples;Min_cycle;Max_cycle;Signal;HPM_P1;HPM_P2
2023/07/10 00:03:35;;;;;;;8.70;7.18;;;;;;;;;;10426101;28;20704;-78
2023/07/10 00:08:36;;;;;;;8.13;7.23;;;;;;;;;;10426637;28;20048;-79
2023/07/10 00:13:36;;;;;;;7.60;6.80;;;;;;;;;;10426403;28;20033;-76
2023/07/10 00:18:36;;;;;;;7.87;7.07;;;;;;;;;;10423940;28;20514;-78
2023/07/10 00:23:37;;;;;;;7.67;6.87;;;;;;;;;;10421977;28;20279;-77
2023/07/10 00:28:37;;;;;;;8.57;7.43;;;;;;;;;;10423092;28;20303;-75
2023/07/10 00:33:38;;;;;;;9.40;7.35;;;;;;;;;;10422692;28;20033;-75
2023/07/10 00:38:38;;;;;;;8.37;7.13;;;;;;;;;;10423725;28;20086;-78
2023/07/10 00:43:44;;;;;;;7.90;7.20;;;;;;;;;;10427553;28;20035;-78
2023/07/10 00:48:47;;;;;;;8.20;7.20;;;;;;;;;;10425258;28;20119;-78
2023/07/10 00:53:48;;;;;;;9.48;7.63;;;;;;;;;;10405236;28;20099;-78
2023/07/10 00:58:51;;;;;;;9.50;7.60;;;;;;;;;;10420387;28;20090;-75
2023/07/10 01:03:51;;;;;;;;;;;;;;;;;;10407538;28;20041;-75
2023/07/10 01:08:56;;;;;;;8.83;7.93;;;;;;;;;;10409183;28;19921;-82
2023/07/10 01:13:57;;;;;;;8.32;7.13;;;;;;;;;;10426085;28;20041;-78
2023/07/10 01:18:58;;;;;;;7.70;6.88;;;;;;;;;;10421003;28;20033;-74
2023/07/10 01:24:03;;;;;;;11.68;8.07;;;;;;;;;;10426259;28;20123;-78
2023/07/10 01:29:11;;;;;;;9.60;7.57;;;;;;;;;;10425390;28;20048;-74
2023/07/10 01:34:12;;;;;;;8.63;7.22;;;;;;;;;;10432925;28;20033;-78
2023/07/10 01:39:12;;;;;;;7.40;6.53;;;;;;;;;;10432682;28;20437;-75
2023/07/10 01:44:17;;;;;;;8.53;7.67;;;;;;;;;;10415697;28;20065;-74
2023/07/10 01:49:21;;;;;;;7.32;6.63;;;;;;;;;;10430833;28;20037;-75
2023/07/10 01:54:21;;;;;;;10.25;7.25;;;;;;;;;;10436179;28;20009;-83
2023/07/10 01:59:22;;;;;;;7.67;6.80;;;;;;;;;;10450308;28;20029;-78
2023/07/10 02:04:22;;;;;;;8.50;7.07;;;;;;;;;;10431687;28;20053;-79
2023/07/10 02:09:23;;;;;;;7.53;6.80;;;;;;;;;;10427315;28;20041;-78
2023/07/10 02:14:24;;;;;;;6.55;5.95;;;;;;;;;;10411288;28;20457;-77
2023/07/10 02:19:24;;;;;;;7.30;6.45;;;;;;;;;;10431424;28;20079;-79
2023/07/10 02:24:25;;;;;;;8.67;7.43;;;;;;;;;;10429908;28;20474;-83
2023/07/10 02:29:25;;;;;;;8.80;7.63;;;;;;;;;;10425632;28;20408;-83
2023/07/10 02:34:26;;;;;;;9.73;7.07;;;;;;;;;;10412421;28;20295;-79
2023/07/10 02:39:26;;;;;;;7.70;6.97;;;;;;;;;;10430658;28;20037;-77
2023/07/10 02:44:28;;;;;;;9.27;7.20;;;;;;;;;;10409658;28;20079;-78
2023/07/10 02:49:29;;;;;;;7.90;6.78;;;;;;;;;;10409032;28;20673;-75
2023/07/10 02:54:29;;;;;;;7.20;6.40;;;;;;;;;;10426171;28;20107;-76
2023/07/10 02:59:29;;;;;;;6.93;6.23;;;;;;;;;;10412135;28;20060;-76
2023/07/10 03:04:30;;;;;;;7.50;6.68;;;;;;;;;;10411712;28;20302;-78
2023/07/10 03:09:30;;;;;;;8.07;6.50;;;;;;;;;;10427087;28;20409;-78
2023/07/10 03:14:30;;;;;;;8.63;7.37;;;;;;;;;;10425056;28;20044;-78
2023/07/10 03:19:31;;;;;;;10.40;7.27;;;;;;;;;;10422812;28;20049;-77
2023/07/10 03:24:32;;;;;;;8.88;7.03;;;;;;;;;;10424538;28;20302;-76
2023/07/10 03:29:32;;;;;;;7.87;6.90;;;;;;;;;;10438675;28;20041;-78
2023/07/10 03:34:32;;;;;;;8.00;7.20;;;;;;;;;;10433841;28;20049;-76
2023/07/10 03:39:33;;;;;;;8.27;7.13;;;;;;;;;;10427744;28;20341;-78
2023/07/10 03:44:34;;;;;;;9.73;7.65;;;;;;;;;;10430241;28;20480;-78
2023/07/10 03:49:34;;;;;;;7.88;6.78;;;;;;;;;;10426883;28;20051;-76
2023/07/10 03:54:35;;;;;;;7.10;6.40;;;;;;;;;;10422286;28;20190;-76
2023/07/10 03:59:35;;;;;;;7.70;6.88;;;;;;;;;;10426889;28;20484;-78
2023/07/10 04:04:36;;;;;;;9.00;7.03;;;;;;;;;;10423641;28;20447;-78
2023/07/10 04:09:36;;;;;;;10.80;7.20;;;;;;;;;;10427546;28;20524;-76
2023/07/10 04:14:37;;;;;;;7.03;6.30;;;;;;;;;;10430899;28;20516;-77
2023/07/10 04:19:38;;;;;;;8.13;6.80;;;;;;;;;;10432062;28;20522;-76
2023/07/10 04:24:38;;;;;;;8.77;7.13;;;;;;;;;;10425176;28;20044;-74
2023/07/10 04:29:38;;;;;;;8.67;7.10;;;;;;;;;;10409512;28;20417;-75
2023/07/10 04:34:39;;;;;;;8.17;6.23;;;;;;;;;;10421953;28;20151;-76
2023/07/10 04:39:39;;;;;;;7.37;6.57;;;;;;;;;;10433210;28;20032;-75
2023/07/10 04:44:39;;;;;;;9.63;6.97;;;;;;;;;;10430575;28;20048;-79
2023/07/10 04:49:40;;;;;;;7.30;6.47;;;;;;;;;;10423354;28;20994;-81
2023/07/10 04:54:40;;;;;;;7.87;7.00;;;;;;;;;;10454505;28;20291;-75
2023/07/10 04:59:40;;;;;;;8.50;6.70;;;;;;;;;;10444291;28;20283;-76
2023/07/10 05:04:41;;;;;;;7.83;6.47;;;;;;;;;;10439445;28;20072;-75
2023/07/10 05:09:41;;;;;;;8.43;6.73;;;;;;;;;;10440431;28;20060;-80
2023/07/10 05:14:41;;;;;;;7.13;5.93;;;;;;;;;;10432953;28;20075;-80
2023/07/10 05:19:42;;;;;;;9.25;6.47;;;;;;;;;;10430590;28;20278;-80
2023/07/10 05:24:42;;;;;;;9.10;7.00;;;;;;;;;;10432540;28;20052;-80
2023/07/10 05:29:43;;;;;;;9.40;7.57;;;;;;;;;;10427476;28;20571;-81
2023/07/10 05:34:45;;;;;;;9.45;7.15;;;;;;;;;;10427913;28;20033;-80
2023/07/10 05:39:46;;;;;;;10.23;7.13;;;;;;;;;;10431654;28;20047;-83
2023/07/10 05:44:46;;;;;;;8.73;7.50;;;;;;;;;;10429716;28;20029;-81
2023/07/10 05:49:47;;;;;;;6.95;6.20;;;;;;;;;;10432703;28;20041;-81
2023/07/10 05:54:49;;;;;;;10.80;9.70;;;;;;;;;;10431437;28;20119;-81
2023/07/10 05:59:49;;;;;;;8.43;7.47;;;;;;;;;;10430791;28;20079;-79
2023/07/10 06:04:49;;;;;;;8.43;6.90;;;;;;;;;;10426877;28;20047;-80
2023/07/10 06:09:49;;;;;;;7.57;6.80;;;;;;;;;;10427703;28;20985;-80
2023/07/10 06:14:50;;;;;;;8.17;6.73;;;;;;;;;;10410472;28;20084;-81
2023/07/10 06:19:50;;;;;;;9.03;7.40;;;;;;;;;;10430341;28;20048;-81
2023/07/10 06:24:51;;;;;;;7.70;6.80;;;;;;;;;;10456230;28;20037;-81
2023/07/10 06:29:51;;;;;;;8.67;6.97;;;;;;;;;;10431602;28;20112;-80
2023/07/10 06:34:52;;;;;;;9.73;6.55;;;;;;;;;;10430080;28;20047;-80
2023/07/10 06:40:05;;;;;;;8.30;6.78;;;;;;;;;;10428912;28;20036;-80
2023/07/10 06:45:06;;;;;;;7.90;6.15;;;;;;;;;;10430073;28;20698;-80
2023/07/10 06:50:07;;;;;;;8.57;6.05;;;;;;;;;;10430667;28;20056;-81
2023/07/10 06:55:10;;;;;;;11.10;7.13;;;;;;;;;;10425338;28;20036;-79
2023/07/10 07:00:12;;;;;;;7.93;6.00;;;;;;;;;;10406046;28;20037;-79
2023/07/10 07:05:12;;;;;;;8.27;5.90;;;;;;;;;;10428910;28;20032;-79
2023/07/10 07:10:14;;;;;;;6.23;5.60;;;;;;;;;;10429933;28;20053;-79
2023/07/10 07:15:15;;;;;;;7.30;5.78;;;;;;;;;;10428072;28;20056;-78
2023/07/10 07:20:16;;;;;;;6.33;5.33;;;;;;;;;;10411084;28;20029;-81
2023/07/10 07:25:18;;;;;;;6.47;5.53;;;;;;;;;;10408971;28;20131;-81
2023/07/10 07:30:18;;;;;;;8.45;5.28;;;;;;;;;;10426912;28;20048;-80
2023/07/10 07:35:18;;;;;;;6.63;4.97;;;;;;;;;;10393105;28;20029;-81
2023/07/10 07:40:19;;;;;;;7.33;5.50;;;;;;;;;;10425987;28;20079;-81
2023/07/10 07:45:19;;;;;;;10.00;6.03;;;;;;;;;;10424702;28;20029;-81
2023/07/10 07:50:20;;;;;;;5.87;4.60;;;;;;;;;;10424395;28;20047;-79
2023/07/10 07:55:21;;;;;;;;;;;;;;;;;;10426839;28;20041;-80
2023/07/10 08:00:21;;;;;;;9.10;5.47;;;;;;;;;;10424495;28;19920;-79
2023/07/10 08:05:22;;;;;;;7.93;5.97;;;;;;;;;;10434152;28;20036;-80
2023/07/10 08:10:22;;;;;;;7.73;5.00;;;;;;;;;;10424293;28;20040;-78
2023/07/10 08:15:22;;;;;;;6.23;5.10;;;;;;;;;;10430281;28;20119;-79
2023/07/10 08:20:23;;;;;;;7.57;5.10;;;;;;;;;;10423879;28;20065;-77
2023/07/10 08:25:23;;;;;;;7.53;4.80;;;;;;;;;;10427601;28;20095;-77
2023/07/10 08:30:24;;;;;;;6.73;4.43;;;;;;;;;;10428375;28;20040;-80
2023/07/10 08:35:25;;;;;;;5.67;4.20;;;;;;;;;;10427352;28;20033;-79
2023/07/10 08:40:25;;;;;;;6.10;5.50;;;;;;;;;;10426077;28;20052;-80
2023/07/10 08:45:34;;;;;;;6.03;4.43;;;;;;;;;;10422516;28;20037;-77
2023/07/10 08:50:37;;;;;;;5.75;4.15;;;;;;;;;;10424868;28;20040;-78
2023/07/10 08:56:07;;;;;;;6.63;4.20;;;;;;;;;;10419555;28;20028;-78
2023/07/10 09:01:19;;;;;;;6.30;4.32;;;;;;;;;;10396498;28;20045;-78
2023/07/10 09:06:21;;;;;;;5.25;4.75;;;;;;;;;;10401873;28;20114;-79
2023/07/10 09:11:22;;;;;;;6.18;5.03;;;;;;;;;;10437710;28;20037;-80
2023/07/10 09:16:23;;;;;;;5.78;4.95;;;;;;;;;;10437405;28;20155;-78
2023/07/10 09:21:31;;;;;;;8.27;5.17;;;;;;;;;;10425676;28;20401;-78
2023/07/10 09:26:38;;;;;;;6.78;5.57;;;;;;;;;;10425075;28;20049;-78
2023/07/10 09:32:16;;;;;;;6.65;5.28;;;;;;;;;;10434126;28;20120;-79
2023/07/10 09:37:19;;;;;;;6.20;5.53;;;;;;;;;;10229470;29;20036;-78
2023/07/10 09:42:26;;;;;;;5.75;5.20;;;;;;;;;;10418001;28;20061;-77
2023/07/10 09:47:36;;;;;;;5.97;5.35;;;;;;;;;;10407236;28;20053;-80
2023/07/10 09:52:39;;;;;;;8.00;6.30;;;;;;;;;;10427215;28;20140;-80
2023/07/10 09:58:00;;;;;;;6.95;5.80;;;;;;;;;;10431699;28;20068;-78
2023/07/10 10:03:02;;;;;;;8.80;5.68;;;;;;;;;;10432472;28;20072;-79
2023/07/10 10:08:10;;;;;;;6.78;5.18;;;;;;;;;;10409885;28;20069;-81
2023/07/10 10:13:20;;;;;;;6.63;4.93;;;;;;;;;;10430697;28;20473;-78
2023/07/10 10:18:31;;;;;;;5.82;4.70;;;;;;;;;;10425136;28;20069;-78
2023/07/10 10:23:33;;;;;;;5.95;4.45;;;;;;;;;;10430711;28;20067;-77
2023/07/10 10:28:46;;;;;;;9.52;4.22;;;;;;;;;;10430056;28;20098;-78
2023/07/10 10:33:59;;;;;;;7.65;4.38;;;;;;;;;;10426980;28;20037;-78
2023/07/10 10:38:59;;;;;;;4.97;4.22;;;;;;;;;;10409997;28;20029;-77
2023/07/10 10:44:04;;;;;;;6.10;4.07;;;;;;;;;;10443716;28;20016;-77
2023/07/10 10:49:13;;;;;;;9.23;4.88;;;;;;;;;;10437927;28;20050;-77
2023/07/10 10:54:19;;;;;;;4.45;4.05;;;;;;;;;;10424428;28;20068;-78
2023/07/10 10:59:31;;;;;;;7.03;5.00;;;;;;;;;;10426408;28;20040;-80
2023/07/10 11:04:36;;;;;;;6.70;4.30;;;;;;;;;;10423834;28;20838;-79
2023/07/10 11:10:04;;;;;;;5.55;4.65;;;;;;;;;;10409287;28;20155;-78
2023/07/10 11:15:14;;;;;;;5.68;4.90;;;;;;;;;;10410608;28;20119;-80
2023/07/10 11:20:16;;;;;;;5.22;4.22;;;;;;;;;;10428558;28;20033;-77
2023/07/10 11:25:16;;;;;;;;;;;;;;;;;;10428647;28;20040;-77
2023/07/10 11:30:29;;;;;;;5.70;4.50;;;;;;;;;;10428862;28;19929;-78
2023/07/10 11:35:30;;;;;;;5.82;4.80;;;;;;;;;;10414085;28;20041;-77
2023/07/10 11:40:30;;;;;;;5.47;4.47;;;;;;;;;;10425456;28;20056;-80
2023/07/10 11:45:33;;;;;;;5.17;4.67;;;;;;;;;;10424293;28;20040;-77
2023/07/10 11:50:34;;;;;;;5.63;4.95;;;;;;;;;;10422367;28;20151;-83
2023/07/10 11:55:41;;;;;;;9.30;4.97;;;;;;;;;;10425171;28;20044;-78
2023/07/10 12:00:42;;;;;;;5.55;4.90;;;;;;;;;;10431225;28;20049;-78
2023/07/10 12:05:43;;;;;;;5.75;5.22;;;;;;;;;;10408575;28;20045;-76
2023/07/10 12:10:46;;;;;;;6.13;5.00;;;;;;;;;;10426272;28;21058;-78
2023/07/10 12:15:48;;;;;;;8.75;5.50;;;;;;;;;;10420372;28;20507;-79
2023/07/10 12:20:50;;;;;;;5.97;5.38;;;;;;;;;;10426329;28;20158;-82
2023/07/10 12:25:52;;;;;;;6.60;5.35;;;;;;;;;;10438515;28;20159;-79
2023/07/10 12:30:53;;;;;;;7.65;6.25;;;;;;;;;;10468248;28;20048;-78
2023/07/10 12:35:54;;;;;;;8.52;6.05;;;;;;;;;;10473020;28;20042;-79
2023/07/10 12:40:54;;;;;;;8.23;7.10;;;;;;;;;;10491699;28;20017;-78
2023/07/10 12:45:59;;;;;;;8.53;7.40;;;;;;;;;;10456551;28;20033;-78
2023/07/10 12:51:01;;;;;;;8.20;7.38;;;;;;;;;;10432185;28;20041;-78
2023/07/10 12:56:06;;;;;;;9.52;8.07;;;;;;;;;;10429590;28;20037;-79
2023/07/10 13:01:17;;;;;;;9.60;8.63;;;;;;;;;;10412914;28;20060;-78
2023/07/10 13:06:17;;;;;;;8.27;7.50;;;;;;;;;;10425750;28;20044;-79
2023/07/10 13:11:21;;;;;;;8.33;7.43;;;;;;;;;;10402562;28;20075;-79
2023/07/10 13:16:28;;;;;;;9.75;8.82;;;;;;;;;;10424829;28;20481;-80
2023/07/10 13:21:28;;;;;;;8.75;7.85;;;;;;;;;;10418740;28;20037;-76
2023/07/10 13:26:29;;;;;;;9.63;8.63;;;;;;;;;;10421865;28;20045;-78
2023/07/10 13:31:31;;;;;;;8.35;7.60;;;;;;;;;;10431432;28;20045;-79
2023/07/10 13:36:32;;;;;;;8.13;7.32;;;;;;;;;;10428865;28;20400;-76
2023/07/10 13:41:32;;;;;;;7.40;6.55;;;;;;;;;;10429875;28;20151;-77
2023/07/10 13:46:33;;;;;;;7.00;6.20;;;;;;;;;;10425172;28;20052;-80
2023/07/10 13:51:33;;;;;;;;;;;;;;;;;;10427755;28;20072;-79
2023/07/10 13:56:44;;;;;;;7.22;6.50;;;;;;;;;;10427913;28;19928;-78
2023/07/10 14:01:45;;;;;;;7.07;6.38;;;;;;;;;;10428482;28;20068;-78
2023/07/10 14:06:45;;;;;;;;;;;;;;;;;;10430447;28;20045;-75
2023/07/10 14:11:46;;;;;;;8.50;7.30;;;;;;;;;;10429679;28;20363;-76
2023/07/10 14:16:47;;;;;;;6.60;5.80;;;;;;;;;;10411361;28;20032;-79
2023/07/10 14:21:48;;;;;;;7.28;6.60;;;;;;;;;;10425038;28;20111;-78
2023/07/10 14:26:49;;;;;;;;;;;;;;;;;;10427836;28;20106;-75
2023/07/10 14:31:51;;;;;;;6.43;5.68;;;;;;;;;;10425970;28;19927;-79
2023/07/10 14:36:52;;;;;;;6.95;6.20;;;;;;;;;;10426538;28;20471;-77
2023/07/10 14:41:52;;;;;;;;;;;;;;;;;;10427884;28;20033;-77
2023/07/10 14:46:52;;;;;;;7.20;6.05;;;;;;;;;;10427768;28;19920;-78
2023/07/10 14:51:53;;;;;;;6.90;6.15;;;;;;;;;;10439218;28;20459;-83
2023/07/10 14:56:55;;;;;;;;;;;;;;;;;;10446948;28;20037;-82
2023/07/10 15:01:55;;;;;;;;;;;;;;;;;;10438763;28;19917;-81
2023/07/10 15:06:56;;;;;;;7.05;6.00;;;;;;;;;;10427674;28;19904;-86
2023/07/10 15:11:56;;;;;;;7.10;6.40;;;;;;;;;;10459230;28;20068;-82
2023/07/10 15:16:57;;;;;;;8.33;5.83;;;;;;;;;;10435066;28;20493;-80
2023/07/10 15:21:57;;;;;;;7.07;6.38;;;;;;;;;;10461920;28;20041;-79
2023/07/10 15:26:58;;;;;;;8.50;6.63;;;;;;;;;;10460619;28;20083;-79
2023/07/10 15:32:07;;;;;;;7.03;6.32;;;;;;;;;;10461176;28;20028;-79
2023/07/10 15:37:16;;;;;;;8.07;6.47;;;;;;;;;;10437717;28;20041;-79
2023/07/10 15:42:17;;;;;;;8.15;6.80;;;;;;;;;;10435159;28;20037;-84
2023/07/10 15:47:20;;;;;;;9.32;7.05;;;;;;;;;;10431867;28;20545;-76
2023/07/10 15:52:24;;;;;;;13.57;6.70;;;;;;;;;;10429718;28;20244;-84
2023/07/10 15:57:24;;;;;;;8.57;6.75;;;;;;;;;;10426052;28;20568;-77
2023/07/10 16:02:25;;;;;;;;;;;;;;;;;;10432212;28;20056;-78
2023/07/10 16:07:25;;;;;;;7.70;6.90;;;;;;;;;;10426718;28;20289;-80
2023/07/10 16:12:26;;;;;;;;;;;;;;;;;;10429941;28;20037;-77
2023/07/10 16:17:26;;;;;;;8.48;7.60;;;;;;;;;;10420269;28;19927;-79
2023/07/10 16:22:27;;;;;;;7.63;6.93;;;;;;;;;;10385662;28;20061;-77
2023/07/10 16:27:28;;;;;;;8.20;7.20;;;;;;;;;;10388868;28;20050;-79
2023/07/10 16:32:28;;;;;;;;;;;;;;;;;;10416133;28;20026;-76
2023/07/10 16:37:28;;;;;;;8.68;6.90;;;;;;;;;;10399734;28;19929;-77
2023/07/10 16:42:30;;;;;;;8.97;7.30;;;;;;;;;;10388811;28;20041;-80
2023/07/10 16:47:35;;;;;;;7.22;6.60;;;;;;;;;;10392736;28;20060;-77
2023/07/10 16:52:35;;;;;;;8.37;6.17;;;;;;;;;;10397874;28;20048;-75
2023/07/10 16:57:36;;;;;;;7.50;6.80;;;;;;;;;;10387795;28;20104;-82
2023/07/10 17:02:36;;;;;;;7.57;6.88;;;;;;;;;;10414048;28;20052;-78
2023/07/10 17:07:37;;;;;;;10.03;7.90;;;;;;;;;;10418930;28;20750;-79
2023/07/10 17:12:38;;;;;;;8.63;7.80;;;;;;;;;;10422725;28;20045;-77
2023/07/10 17:17:38;;;;;;;9.27;8.38;;;;;;;;;;10432137;28;20447;-80
2023/07/10 17:22:39;;;;;;;9.00;7.83;;;;;;;;;;10444685;28;20033;-79
2023/07/10 17:27:39;;;;;;;9.40;8.40;;;;;;;;;;10457936;28;20033;-79
2023/07/10 17:32:40;;;;;;;9.47;8.57;;;;;;;;;;10449807;28;20041;-77
2023/07/10 17:37:41;;;;;;;10.15;8.40;;;;;;;;;;10445246;28;20045;-85
2023/07/10 17:42:42;;;;;;;10.07;9.07;;;;;;;;;;10445774;28;20055;-78
2023/07/10 17:47:42;;;;;;;9.20;8.32;;;;;;;;;;10449449;28;20299;-78
2023/07/10 17:52:43;;;;;;;10.07;8.40;;;;;;;;;;10414535;28;20960;-78
2023/07/10 17:57:44;;;;;;;9.77;8.60;;;;;;;;;;10444332;28;20032;-76
2023/07/10 18:02:45;;;;;;;9.13;8.23;;;;;;;;;;10442066;28;20594;-80
2023/07/10 18:07:46;;;;;;;8.88;7.97;;;;;;;;;;10448404;28;20098;-78
2023/07/10 18:12:47;;;;;;;9.93;8.53;;;;;;;;;;10438982;28;20032;-87
2023/07/10 18:17:47;;;;;;;9.63;8.53;;;;;;;;;;10433935;28;20068;-87
2023/07/10 18:22:48;;;;;;;11.03;8.87;;;;;;;;;;10486694;28;20096;-90
2023/07/10 18:27:49;;;;;;;11.10;8.30;;;;;;;;;;10491027;28;20057;-85
2023/07/10 18:32:49;;;;;;;9.47;8.47;;;;;;;;;;10459344;28;20449;-77
2023/07/10 18:37:49;;;;;;;9.80;8.13;;;;;;;;;;10440218;28;20045;-79
2023/07/10 18:42:50;;;;;;;9.40;8.07;;;;;;;;;;10439046;28;20560;-80
2023/07/10 18:47:50;;;;;;;9.00;8.10;;;;;;;;;;10436061;28;20045;-78
2023/07/10 18:52:50;;;;;;;9.60;8.60;;;;;;;;;;10439652;28;20033;-81
2023/07/10 18:57:51;;;;;;;9.50;7.93;;;;;;;;;;10434375;28;20092;-81
2023/07/10 19:02:53;;;;;;;9.23;7.73;;;;;;;;;;10434436;28;20512;-81
2023/07/10 19:07:53;;;;;;;;;;;;;;;;;;10430393;28;20499;-75
2023/07/10 19:12:53;;;;;;;11.38;8.60;;;;;;;;;;10433155;28;19917;-74
2023/07/10 19:17:54;;;;;;;8.73;7.50;;;;;;;;;;10434249;28;20492;-75
2023/07/10 19:22:56;;;;;;;10.33;8.00;;;;;;;;;;10432810;28;20041;-76
2023/07/10 19:27:56;;;;;;;10.82;8.80;;;;;;;;;;10441210;28;20389;-81
2023/07/10 19:32:57;;;;;;;9.53;7.83;;;;;;;;;;10437162;28;20029;-76
2023/07/10 19:37:57;;;;;;;9.93;8.80;;;;;;;;;;10436581;28;20045;-78
2023/07/10 19:42:58;;;;;;;9.60;8.60;;;;;;;;;;10436911;28;20563;-78
2023/07/10 19:47:58;;;;;;;9.63;8.63;;;;;;;;;;10436382;28;20045;-77
2023/07/10 19:52:59;;;;;;;9.83;8.73;;;;;;;;;;10409391;28;20041;-78
2023/07/10 19:57:59;;;;;;;10.93;9.53;;;;;;;;;;10433435;28;20036;-76
2023/07/10 20:02:59;;;;;;;9.83;8.77;;;;;;;;;;10431618;28;20033;-79
2023/07/10 20:08:00;;;;;;;9.37;8.47;;;;;;;;;;10428747;28;20044;-79
2023/07/10 20:13:00;;;;;;;12.10;9.40;;;;;;;;;;10437382;28;20041;-76
2023/07/10 20:18:01;;;;;;;10.10;9.20;;;;;;;;;;10440361;28;20040;-82
2023/07/10 20:23:04;;;;;;;11.90;9.10;;;;;;;;;;10442761;28;20045;-76
2023/07/10 20:28:08;;;;;;;11.38;9.07;;;;;;;;;;10448983;28;20106;-75
2023/07/10 20:33:12;;;;;;;10.70;8.80;;;;;;;;;;10450083;28;20052;-77
2023/07/10 20:38:14;;;;;;;10.93;9.38;;;;;;;;;;10443378;28;20057;-81
2023/07/10 20:43:15;;;;;;;10.90;9.80;;;;;;;;;;10437814;28;20044;-81
2023/07/10 20:48:19;;;;;;;11.73;10.43;;;;;;;;;;10434397;28;20054;-76
2023/07/10 20:58:43;;;;;;;11.55;10.35;;;;;;;;;;10905418;23;20050;-75
2023/07/10 21:03:44;;;;;;;10.43;9.37;;;;;;;;;;10359518;28;20038;-78
2023/07/10 21:08:46;;;;;;;10.63;9.48;;;;;;;;;;10360496;28;20346;-75
2023/07/10 21:13:47;;;;;;;10.90;9.80;;;;;;;;;;10327027;28;20045;-81
2023/07/10 21:18:48;;;;;;;11.13;9.90;;;;;;;;;;10358704;28;20034;-76
2023/07/10 21:23:48;;;;;;;11.23;10.00;;;;;;;;;;10355947;28;20034;-75
2023/07/10 21:28:55;;;;;;;12.50;10.13;;;;;;;;;;10350086;28;20038;-75
2023/07/10 21:33:56;;;;;;;11.63;9.60;;;;;;;;;;10352763;28;20046;-77
2023/07/10 21:38:56;;;;;;;10.85;9.80;;;;;;;;;;10350993;28;20045;-79
2023/07/10 21:44:00;;;;;;;11.70;10.50;;;;;;;;;;10356516;28;20773;-80
2023/07/10 21:49:00;;;;;;;12.55;11.25;;;;;;;;;;10359928;28;20083;-76
2023/07/10 21:54:01;;;;;;;13.27;11.30;;;;;;;;;;10358064;28;20394;-76
2023/07/10 21:59:03;;;;;;;12.07;10.87;;;;;;;;;;10325904;28;20042;-78
2023/07/10 22:04:05;;;;;;;12.48;11.05;;;;;;;;;;10337450;28;20033;-75
2023/07/10 22:09:05;;;;;;;12.82;11.65;;;;;;;;;;10340592;28;20046;-75
2023/07/10 22:14:11;;;;;;;12.60;11.30;;;;;;;;;;10339594;28;21142;-83
2023/07/10 22:19:12;;;;;;;12.05;10.85;;;;;;;;;;10337631;28;20062;-77
2023/07/10 22:24:19;;;;;;;13.05;11.65;;;;;;;;;;10339089;28;20500;-78
2023/07/10 22:29:19;;;;;;;12.68;11.43;;;;;;;;;;10337097;28;20050;-75
2023/07/10 22:34:19;;;;;;;15.60;12.60;;;;;;;;;;10341552;28;20038;-75
2023/07/10 22:39:20;;;;;;;13.10;11.77;;;;;;;;;;10341149;28;20630;-83
2023/07/10 22:44:20;;;;;;;13.53;11.77;;;;;;;;;;10315560;28;20278;-76
2023/07/10 22:49:24;;;;;;;12.70;11.50;;;;;;;;;;10333397;28;20049;-75
2023/07/10 22:54:25;;;;;;;14.65;11.77;;;;;;;;;;10338573;28;20030;-78
2023/07/10 22:59:25;;;;;;;12.00;10.80;;;;;;;;;;10334683;28;20478;-77
2023/07/10 23:04:25;;;;;;;14.23;12.63;;;;;;;;;;10338181;28;20070;-76
2023/07/10 23:09:26;;;;;;;12.87;11.43;;;;;;;;;;10334104;28;20049;-76
2023/07/10 23:14:26;;;;;;;13.52;12.13;;;;;;;;;;10332151;28;20053;-75
2023/07/10 23:19:26;;;;;;;13.20;11.83;;;;;;;;;;10336953;28;20438;-75
2023/07/10 23:24:28;;;;;;;12.97;11.67;;;;;;;;;;10333976;28;20607;-79
2023/07/10 23:29:28;;;;;;;14.70;13.00;;;;;;;;;;10338087;28;20307;-74
2023/07/10 23:34:29;;;;;;;14.35;12.30;;;;;;;;;;10333664;28;20034;-75
2023/07/10 23:39:29;;;;;;;14.73;13.13;;;;;;;;;;10335893;28;20038;-78
2023/07/10 23:44:29;;;;;;;12.57;11.27;;;;;;;;;;10337863;28;20030;-76
2023/07/10 23:49:30;;;;;;;13.63;12.03;;;;;;;;;;10341487;28;20046;-80
2023/07/10 23:54:30;;;;;;;15.03;13.00;;;;;;;;;;10335086;28;20038;-75
2023/07/10 23:59:33;;;;;;;13.40;11.90;;;;;;;;;;10338398;28;20300;-75
